Latest Weather Observations for Tunnack

IDT60801

Issued at 6:31 pm EDT Tuesday 17 October 2017 (issued every 30 minutes, with the page automatically refreshed every 10 minutes)

About weather observations | Map of weather stations | Latest weather observations for TAS | Other Formats
Station Details ID: 094195 Name: TUNNACK FIRE STATION Lat: -42.45 Lon: 147.46 Height: 461.5 m
Data from the previous 72 hours. | See also: Recent months at Tunnack
Date/Time
EDT
Temp
°C
App
Temp
°C
Dew
Point
°C
Rel
Hum
%
Delta-T
°C
Wind Press
QNH
hPa
Press
MSL
hPa
Rain since
9am
mm
Dir  Spd
km/h
Gust
km/h
Spd
kts
Gust
kts
17/06:30pm 22.0 17.4 11.1 50 6.1 N 26 39 14 21 1022.2 1022.5 0.0
17/06:00pm 22.9 18.8 11.3 48 6.6 N 24 30 13 16 1022.0 1022.3 0.0
17/05:30pm 23.6 19.8 11.0 45 7.2 N 22 28 12 15 1022.0 1022.3 0.0
17/05:00pm 24.0 20.6 10.7 43 7.5 N 19 28 10 15 1022.2 1022.5 0.0
17/04:30pm 24.4 21.0 10.7 42 7.8 N 19 26 10 14 1022.1 1022.4 0.0
17/04:00pm 24.9 21.8 7.1 32 9.5 NNW 13 19 7 10 1022.1 1022.4 0.0
17/03:30pm 24.7 21.6 7.4 33 9.3 NNE 13 17 7 9 1022.4 1022.7 0.0
17/03:00pm 24.3 21.9 7.0 33 9.2 ENE 9 17 5 9 1022.5 1022.8 0.0
17/02:30pm 24.6 22.1 8.1 35 9.0 NNE 11 20 6 11 1022.8 1023.2 0.0
17/02:00pm 24.2 21.6 10.8 43 7.6 NNE 15 22 8 12 1023.0 1023.4 0.0
17/01:30pm 22.7 19.4 9.5 43 7.3 N 17 22 9 12 1023.2 1023.6 0.0
17/01:00pm 22.3 19.4 9.8 45 6.9 NNE 15 20 8 11 1023.2 1023.6 0.0
17/12:30pm 22.5 18.7 5.9 34 8.6 NW 15 20 8 11 1023.5 1023.9 0.0
17/12:00pm 21.8 18.9 6.5 37 7.9 NNW 11 17 6 9 1023.6 1024.0 0.0
17/11:30am 20.4 18.5 9.0 48 6.2 NNW 9 15 5 8 1024.1 1024.4 0.0
17/11:00am 18.5 17.0 10.6 60 4.3 N 9 15 5 8 1024.2 1024.5 0.0
17/10:30am 17.2 15.6 10.3 64 3.8 N 9 13 5 7 1024.5 1024.8 0.0
17/10:00am 15.6 13.7 10.6 72 2.7 N 11 15 6 8 1024.6 1024.9 0.0
17/09:30am 12.8 11.6 9.4 80 1.8 NNE 6 9 3 5 1024.4 1024.7 0.0
17/09:00am 11.9 10.1 9.6 86 1.2 N 9 15 5 8 1024.3 1024.6 0.0
17/08:30am 10.8 8.5 9.1 89 0.9 N 11 17 6 9 1024.2 1024.5 0.0
17/08:00am 10.0 7.6 8.8 92 0.6 N 11 15 6 8 1024.2 1024.5 0.0
17/07:30am 9.8 7.1 8.9 94 0.5 N 13 20 7 11 1023.7 1024.1 0.0
17/07:00am 8.7 5.8 8.1 96 0.3 N 13 19 7 10 1023.6 1024.0 0.0
17/06:30am 8.3 5.3 7.5 95 0.4 N 13 19 7 10 1023.2 1023.6 0.0
17/06:00am 8.7 5.2 7.3 91 0.7 N 15 19 8 10 1023.0 1023.4 0.0
17/05:30am 8.6 5.8 7.1 90 0.7 N 11 17 6 9 1023.1 1023.5 0.0
17/05:00am 8.3 5.3 6.1 86 1.0 NNE 11 13 6 7 1023.1 1023.5 0.0
17/04:30am 8.8 5.8 5.9 82 1.4 NNE 11 15 6 8 1023.1 1023.5 0.0
17/04:00am 9.5 5.7 5.7 77 1.8 NNE 15 20 8 11 1023.1 1023.5 0.0
17/03:30am 9.7 6.2 5.5 75 2.0 N 13 24 7 13 1023.0 1023.4 0.0
17/03:00am 9.7 4.9 5.7 76 1.9 NNE 20 26 11 14 1023.0 1023.4 0.0
17/02:30am 9.3 5.3 4.7 73 2.1 NNE 15 19 8 10 1023.1 1023.5 0.0
17/02:00am 10.8 7.6 5.1 68 2.7 N 11 17 6 9 1023.6 1024.0 0.0
17/01:30am 11.8 8.4 5.9 67 2.8 N 13 20 7 11 1023.7 1024.1 0.0
17/01:00am 12.1 9.4 5.7 65 3.0 NNE 9 17 5 9 1023.9 1024.2 0.0
17/12:30am 12.2 9.2 5.8 65 3.1 NNE 11 19 6 10 1024.3 1024.6 0.0
17/12:00am 12.6 10.0 6.2 65 3.1 NNE 9 15 5 8 1024.3 1024.6 0.0
 
Date/Time
EDT
Temp
°C
App
Temp
°C
Dew
Point
°C
Rel
Hum
%
Delta-T
°C
Wind Press
QNH
hPa
Press
MSL
hPa
Rain since
9am
mm
Dir  Spd
km/h
Gust
km/h
Spd
kts
Gust
kts
16/11:30pm 13.0 9.2 5.9 62 3.4 NNE 15 22 8 12 1024.5 1024.8 0.0
16/11:00pm 13.7 10.7 6.1 60 3.7 NNE 11 17 6 9 1024.7 1025.1 0.0
16/10:30pm 13.8 11.2 6.2 60 3.7 NE 9 13 5 7 1024.8 1025.2 0.0
16/10:00pm 13.5 9.9 6.6 63 3.4 NNE 15 20 8 11 1025.0 1025.4 0.0
16/09:30pm 13.8 10.3 7.3 65 3.3 NNE 15 19 8 10 1025.0 1025.4 0.0
16/09:00pm 14.8 12.2 9.2 69 2.9 NNE 13 17 7 9 1025.0 1025.4 0.0
16/08:30pm 15.3 13.8 9.0 66 3.3 NE 7 11 4 6 1024.8 1025.2 0.0
16/08:00pm 16.3 14.9 8.8 61 3.9 NE 6 9 3 5 1024.3 1024.6 0.0
16/07:30pm 17.5 15.6 8.9 57 4.6 NE 9 15 5 8 1024.0 1024.3 0.0
16/07:00pm 18.1 15.6 8.4 53 5.1 NE 11 17 6 9 1023.9 1024.2 0.0
16/06:30pm 18.9 15.4 8.8 52 5.4 N 17 20 9 11 1023.6 1024.0 0.0
16/06:00pm 19.7 15.4 7.1 44 6.5 N 19 28 10 15 1023.4 1023.8 0.0
16/05:30pm 20.8 16.8 8.1 44 6.8 N 19 26 10 14 1023.2 1023.6 0.0
16/05:00pm 21.4 17.1 8.0 42 7.1 N 20 26 11 14 1023.2 1023.6 0.0
16/04:30pm 22.0 18.7 9.5 45 6.9 N 17 24 9 13 1023.3 1023.7 0.0
16/04:00pm 21.7 18.3 10.5 49 6.2 N 19 26 10 14 1023.3 1023.7 0.0
16/03:30pm 21.7 18.6 10.2 48 6.4 N 17 22 9 12 1023.6 1024.0 0.0
16/03:00pm 21.1 17.6 10.3 50 6.0 NNW 19 22 10 12 1024.1 1024.4 0.0
16/02:30pm 20.9 16.9 9.2 47 6.4 N 20 26 11 14 1024.3 1024.6 0.0
16/02:00pm 20.9 18.0 11.0 53 5.5 N 17 22 9 12 1024.4 1024.7 0.0
16/01:30pm 20.8 18.0 11.4 55 5.3 NNW 17 20 9 11 1024.7 1025.1 0.0
16/01:00pm 19.7 17.9 12.2 62 4.3 N 13 17 7 9 1024.9 1025.3 0.0
16/12:30pm 18.3 16.3 11.4 64 3.9 N 13 15 7 8 1025.2 1025.6 0.0
16/12:00pm 17.6 16.0 11.6 68 3.3 N 11 15 6 8 1025.4 1025.8 0.0
16/11:30am 16.6 14.9 11.1 70 3.0 N 11 15 6 8 1025.6 1026.0 0.0
16/11:00am 15.5 13.7 10.7 73 2.6 N 11 15 6 8 1026.0 1026.4 0.0
16/10:30am 14.5 12.2 10.5 77 2.1 N 13 15 7 8 1026.2 1026.5 0.0
16/10:00am 12.7 10.3 9.9 83 1.5 N 13 17 7 9 1026.0 1026.4 0.0
16/09:30am 11.1 8.5 9.4 89 0.9 NNW 13 17 7 9 1026.2 1026.5 0.0
16/09:00am 9.8 7.6 9.3 97 0.3 NNW 11 15 6 8 1026.0 1026.4 0.0
16/08:30am 9.1 6.8 9.0 99 0.1 N 11 15 6 8 1025.8 1026.2 0.0
16/08:00am 8.7 6.3 8.6 99 0.0 N 11 15 6 8 1025.8 1026.2 0.0
16/07:30am 8.5 7.0 8.4 99 0.0 NNE 6 9 3 5 1025.7 1026.1 0.0
16/07:00am 8.2 6.4 8.1 99 0.0 N 7 9 4 5 1025.4 1025.8 0.0
16/06:30am 7.4 5.6 7.3 99 0.0 ENE 6 7 3 4 1025.0 1025.4 0.0
16/06:00am 7.8 6.1 7.7 99 0.0 NE 6 9 3 5 1024.6 1024.9 0.0
16/05:30am 8.0 6.2 7.9 99 0.0 NE 7 9 4 5 1024.5 1024.8 0.0
16/05:00am 8.1 6.3 8.0 99 0.0 NE 7 11 4 6 1024.5 1024.8 0.0
16/04:30am 8.4 6.7 8.3 99 0.0 NE 7 11 4 6 1024.6 1024.9 0.0
16/04:00am 8.4 6.7 8.3 99 0.0 NE 7 11 4 6 1024.7 1025.1 0.0
16/03:30am 7.7 6.0 7.6 99 0.0 E 6 7 3 4 1025.0 1025.4 0.0
16/03:00am 7.8 6.9 7.7 99 0.0 ESE 2 7 1 4 1025.1 1025.5 0.0
16/02:30am 8.1 6.5 7.8 98 0.1 ENE 6 9 3 5 1025.0 1025.4 0.0
16/02:00am 8.2 6.4 7.9 98 0.1 ENE 7 11 4 6 1025.2 1025.6 0.0
16/01:30am 8.7 7.2 8.4 98 0.1 ENE 6 9 3 5 1025.4 1025.8 0.0
16/01:00am 8.9 7.3 8.6 98 0.1 NE 7 11 4 6 1025.5 1025.9 0.0
16/12:30am 9.2 7.6 8.9 98 0.2 ENE 7 11 4 6 1025.6 1026.0 0.0
16/12:00am 9.2 7.3 8.9 98 0.1 NE 9 13 5 7 1025.6 1026.0 0.0
 
Date/Time
EDT
Temp
°C
App
Temp
°C
Dew
Point
°C
Rel
Hum
%
Delta-T
°C
Wind Press
QNH
hPa
Press
MSL
hPa
Rain since
9am
mm
Dir  Spd
km/h
Gust
km/h
Spd
kts
Gust
kts
15/11:30pm 9.4 8.1 9.1 98 0.2 ENE 6 7 3 4 1025.6 1026.0 0.0
15/11:00pm 9.3 7.8 9.0 98 0.2 ENE 7 11 4 6 1025.4 1025.8 0.0
15/10:30pm 9.2 7.6 8.9 98 0.2 ENE 7 9 4 5 1025.4 1025.8 0.0
15/10:00pm 9.3 7.3 8.8 97 0.2 ENE 9 13 5 7 1025.3 1025.7 0.0
15/09:30pm 9.5 7.9 8.9 96 0.3 ENE 7 13 4 7 1025.2 1025.6 0.0
15/09:00pm 9.3 6.5 8.5 95 0.4 NE 13 17 7 9 1025.0 1025.4 0.0
15/08:30pm 9.9 7.9 8.8 93 0.6 NE 9 15 5 8 1024.8 1025.2 0.0
15/08:00pm 10.5 8.9 8.6 88 1.0 NE 7 11 4 6 1024.5 1024.8 0.0
15/07:30pm 11.8 10.2 8.6 81 1.6 ENE 7 13 4 7 1024.0 1024.3 0.0
15/07:00pm 13.9 11.4 8.3 69 2.9 NE 11 17 6 9 1023.4 1023.8 0.0
15/06:58pm 14.1 11.6 8.3 68 3.0 NE 11 17 6 9 1023.4 1023.8 0.0
15/06:30pm 19.1 16.5 5.9 42 6.7 WNW 9 15 5 8 1023.0 1023.4 0.0
15/06:00pm 20.6 17.1 5.4 37 7.7 W 13 20 7 11 1022.8 1023.2 0.0
15/05:30pm 21.1 18.5 5.9 37 7.8 WSW 9 17 5 9 1022.6 1022.9 0.0
15/05:00pm 21.4 17.6 5.7 36 8.0 WSW 15 20 8 11 1022.4 1022.7 0.0
15/04:30pm 21.6 17.6 4.7 33 8.5 WNW 15 24 8 13 1022.2 1022.5 0.0
15/04:00pm 21.9 18.2 6.2 36 8.1 W 15 24 8 13 1022.0 1022.3 0.0
15/03:30pm 21.7 17.6 6.4 37 7.9 W 17 26 9 14 1022.1 1022.4 0.0
15/03:00pm 21.7 17.6 6.4 37 7.9 WNW 17 30 9 16 1022.1 1022.4 0.0
15/02:30pm 21.5 16.9 6.6 38 7.7 W 20 30 11 16 1022.1 1022.4 0.0
15/02:00pm 21.0 16.5 6.2 38 7.6 WSW 19 28 10 15 1022.0 1022.3 0.0
15/01:30pm 20.3 15.3 4.4 35 7.9 WNW 20 32 11 17 1021.9 1022.2 0.0
15/01:00pm 19.8 14.8 6.5 42 6.8 WNW 22 33 12 18 1021.7 1022.0 0.0
15/12:30pm 20.0 15.8 8.4 47 6.2 WNW 20 33 11 18 1021.7 1022.0 0.0
15/12:00pm 19.1 14.8 7.8 48 5.9 WNW 20 28 11 15 1021.8 1022.1 0.0
15/11:30am 18.4 14.0 7.5 49 5.7 WNW 20 30 11 16 1021.9 1022.2 0.0
15/11:00am 17.8 12.9 6.7 48 5.6 WNW 22 32 12 17 1022.0 1022.3 0.0
15/10:30am 16.9 11.7 5.5 47 5.6 WNW 22 32 12 17 1022.0 1022.3 0.0
15/10:00am 15.3 10.2 5.8 53 4.6 NW 22 32 12 17 1021.9 1022.2 0.0
15/09:30am 14.6 8.9 5.1 53 4.6 WNW 24 35 13 19 1021.8 1022.1 0.0
15/09:00am 13.8 8.8 4.7 54 4.3 WNW 20 30 11 16 1021.4 1021.8 0.0
15/08:30am 13.1 8.3 4.8 57 3.9 WNW 19 32 10 17 1020.9 1021.3 0.0
15/08:00am 12.1 7.7 4.8 61 3.4 WNW 17 24 9 13 1020.7 1021.0 0.0
15/07:30am 9.4 5.5 5.2 75 1.9 WNW 15 20 8 11 1020.1 1020.4 0.0
15/07:00am 8.3 3.3 4.7 78 1.6 WNW 20 26 11 14 1019.5 1019.8 0.0
15/06:30am 9.0 3.3 4.8 75 1.9 WNW 24 35 13 19 1019.0 1019.3 0.0
15/06:00am 8.9 3.9 4.7 75 1.9 NW 20 28 11 15 1018.9 1019.2 0.0
15/05:30am 9.8 5.1 5.0 72 2.2 NW 19 24 10 13 1019.1 1019.5 0.0
15/05:00am 9.0 6.2 5.0 76 1.8 WNW 9 19 5 10 1019.1 1019.5 0.0
15/04:30am 9.2 6.0 5.0 75 1.9 W 11 19 6 10 1019.4 1019.7 0.0
15/04:00am 9.0 4.6 5.0 76 1.8 WNW 17 22 9 12 1019.5 1019.8 0.0
15/03:30am 9.5 4.2 5.1 74 2.0 WNW 22 32 12 17 1019.6 1019.9 0.0
15/03:18am 9.7 4.5 5.3 74 2.0 WNW 22 35 12 19 1019.6 1019.9 0.0
15/03:00am 8.4 5.1 4.8 78 1.6 WSW 11 15 6 8 1019.7 1020.0 0.0
15/02:30am 8.7 5.1 4.9 77 1.7 WNW 13 19 7 10 1019.9 1020.2 0.0
15/02:00am 9.1 5.9 4.9 75 1.9 W 11 20 6 11 1020.0 1020.3 0.0
15/01:30am 9.3 4.9 4.7 73 2.1 NW 17 30 9 16 1020.4 1020.7 0.0
15/01:00am 8.8 5.2 4.8 76 1.8 NW 13 19 7 10 1020.5 1020.8 0.0
15/12:30am 8.7 6.3 4.3 74 2.0 N 6 9 3 5 1020.6 1020.9 0.0
15/12:00am 9.2 5.5 4.6 73 2.1 NW 13 24 7 13 1020.5 1020.8 0.0
 
Date/Time
EDT
Temp
°C
App
Temp
°C
Dew
Point
°C
Rel
Hum
%
Delta-T
°C
Wind Press
QNH
hPa
Press
MSL
hPa
Rain since
9am
mm
Dir  Spd
km/h
Gust
km/h
Spd
kts
Gust
kts
14/11:30pm 9.1 5.8 4.5 73 2.1 NW 11 17 6 9 1020.5 1020.8 0.0
14/11:00pm 8.9 4.8 4.3 73 2.1 NW 15 24 8 13 1020.5 1020.8 0.0
14/10:30pm 8.9 5.5 4.1 72 2.2 NNW 11 19 6 10 1020.6 1020.9 0.0
14/10:00pm 9.0 4.6 4.6 74 2.0 NW 17 20 9 11 1020.9 1021.3 0.0
14/09:30pm 9.0 5.3 4.2 72 2.2 NW 13 17 7 9 1020.9 1021.3 0.0
14/09:00pm 9.6 7.9 3.8 67 2.6 WSW 2 9 1 5 1020.9 1021.3 0.0
14/08:30pm 9.6 6.9 3.8 67 2.6 W 7 11 4 6 1020.7 1021.0 0.0
14/08:00pm 10.6 6.7 3.6 62 3.2 WNW 13 20 7 11 1020.5 1020.8 0.0
14/07:30pm 11.8 6.8 3.6 57 3.7 W 19 26 10 14 1020.3 1020.6 0.0
14/07:00pm 12.7 8.0 3.4 53 4.2 W 17 30 9 16 1020.0 1020.3 0.0

Other Formats:

Comma delimited format used in spreadsheet applications
http://www.bom.gov.au/fwo/IDT60801/IDT60801.94960.axf

JavaScript Object Notation format (JSON) in row-major order
http://www.bom.gov.au/fwo/IDT60801/IDT60801.94960.json